03:44
Airports
History
Links
Donate
Help keep this website running!
PayPal
Bitcoin
This page is community maintained. The information is intended for PC simulator navigation or reference.
Always use approved charts for navigation.
YWDR
WINDERADEEN
WINDERADEEN (YWDR)
Collector, New South Wales, Australia (2581)
4
Lat/Lng:34° 56' 20.46" S / 149° 24' 42.12" E
-34.939017 / 149.411699
Elevation:2293'ft / 699mMSL
ID / ICAO:YWDR
Runways:1
Longest:9-27
Grass 1,191m / 3,907ft
Nearby Weather03:30 GMT 2017-12-13
Nearby weather at YSCB, Canberra located 28.2 nautical miles from YWDR
Altimeter: 29.88
Visibility: 6.2 statute miles
Wind: 13 knots (from 300°)
Temp: 31°c / 88°f
Humidity: 20.8%

METAR: YSCB 130330Z 30013KT CAVOK 31/06 Q1012 NOSIG

(Powered by phpweather)
Runway 9 / 27
Dimensions:1190.9 x 50m 3907' x 164'ft
Surface:Grass
Runway 9 [A]Runway 27 [B]
Heading:092°TH 272°TH
Lat:
Lng:
34° 56' 19.45"S
149° 24' 18.51"E
34° 56' 21.47"S
149° 25' 5.72"E
User Notes and Comments
34° 56' 20.46" S / 149° 24' 42.12" E
Distance To
Airport ID:
Nearby Airports
(C) Gundaroo 11.6 NM
YGDO SW 228°
(U) Goulburn 20.1 NM
YGLB ENE 63°
(C) Canberra 28.2 NM
YSCB ( WX ) SSW 206°
4 CROOKWELL 30.5 NM
YCRL N
4 TRALEE 34.6 NM
YTAL SSW 203°
4 Binda 44.0 NM
YBID N 355°
4 HARDEN 63.4 NM
YHAE WNW 294°
VFR Chart
Flight Planning at SkyVector.com